sensor_id;sensor_type;location;lat;lon;timestamp;temperature;humidity
77613;DHT22;66777;52.282;5.960;2023-05-07T00:04:21;13.90;96.90
77613;DHT22;66777;52.282;5.960;2023-05-07T00:06:47;13.90;96.90
77613;DHT22;66777;52.282;5.960;2023-05-07T00:09:12;13.80;96.90
77613;DHT22;66777;52.282;5.960;2023-05-07T00:11:38;13.80;96.90
77613;DHT22;66777;52.282;5.960;2023-05-07T00:16:30;13.80;96.90
77613;DHT22;66777;52.282;5.960;2023-05-07T00:18:57;13.80;96.90
77613;DHT22;66777;52.282;5.960;2023-05-07T00:21:23;13.90;96.90
77613;DHT22;66777;52.282;5.960;2023-05-07T00:23:53;13.90;96.90
77613;DHT22;66777;52.282;5.960;2023-05-07T00:26:18;13.90;96.90
77613;DHT22;66777;52.282;5.960;2023-05-07T00:28:44;13.90;96.90
77613;DHT22;66777;52.282;5.960;2023-05-07T00:31:10;13.90;96.90
77613;DHT22;66777;52.282;5.960;2023-05-07T00:33:36;13.80;96.90
77613;DHT22;66777;52.282;5.960;2023-05-07T00:36:01;13.80;96.90
77613;DHT22;66777;52.282;5.960;2023-05-07T00:38:27;13.80;96.90
77613;DHT22;66777;52.282;5.960;2023-05-07T00:40:53;13.80;96.90
77613;DHT22;66777;52.282;5.960;2023-05-07T00:43:19;13.80;96.90
77613;DHT22;66777;52.282;5.960;2023-05-07T00:45:45;13.70;96.90
77613;DHT22;66777;52.282;5.960;2023-05-07T00:48:11;13.70;96.90
77613;DHT22;66777;52.282;5.960;2023-05-07T00:50:37;13.70;96.90
77613;DHT22;66777;52.282;5.960;2023-05-07T00:53:04;13.70;97.00
77613;DHT22;66777;52.282;5.960;2023-05-07T00:55:30;13.70;97.00
77613;DHT22;66777;52.282;5.960;2023-05-07T00:57:56;13.80;97.00
77613;DHT22;66777;52.282;5.960;2023-05-07T01:00:22;13.80;96.90
77613;DHT22;66777;52.282;5.960;2023-05-07T01:02:48;13.80;97.00
77613;DHT22;66777;52.282;5.960;2023-05-07T01:05:16;13.80;96.90
77613;DHT22;66777;52.282;5.960;2023-05-07T01:07:43;13.80;96.90
77613;DHT22;66777;52.282;5.960;2023-05-07T01:10:10;13.80;96.90
77613;DHT22;66777;52.282;5.960;2023-05-07T01:12:37;13.80;97.00
77613;DHT22;66777;52.282;5.960;2023-05-07T01:15:05;13.80;96.90
77613;DHT22;66777;52.282;5.960;2023-05-07T01:17:37;13.70;96.90
77613;DHT22;66777;52.282;5.960;2023-05-07T01:20:04;13.70;96.90
77613;DHT22;66777;52.282;5.960;2023-05-07T01:22:38;13.70;96.90
77613;DHT22;66777;52.282;5.960;2023-05-07T01:25:07;13.60;96.90
77613;DHT22;66777;52.282;5.960;2023-05-07T01:27:33;13.60;96.90
77613;DHT22;66777;52.282;5.960;2023-05-07T01:30:01;13.50;96.90
77613;DHT22;66777;52.282;5.960;2023-05-07T01:32:40;13.50;96.90
77613;DHT22;66777;52.282;5.960;2023-05-07T01:35:12;13.40;96.90
77613;DHT22;66777;52.282;5.960;2023-05-07T01:37:40;13.40;96.90
77613;DHT22;66777;52.282;5.960;2023-05-07T01:40:07;13.30;96.90
77613;DHT22;66777;52.282;5.960;2023-05-07T01:42:33;13.40;96.90
77613;DHT22;66777;52.282;5.960;2023-05-07T01:44:59;13.30;96.80
77613;DHT22;66777;52.282;5.960;2023-05-07T01:47:25;13.30;96.80
77613;DHT22;66777;52.282;5.960;2023-05-07T01:49:51;13.30;96.90
77613;DHT22;66777;52.282;5.960;2023-05-07T01:52:18;13.30;96.80
77613;DHT22;66777;52.282;5.960;2023-05-07T01:54:44;13.30;96.90
77613;DHT22;66777;52.282;5.960;2023-05-07T01:57:09;13.30;96.80
77613;DHT22;66777;52.282;5.960;2023-05-07T01:59:35;13.30;96.90
77613;DHT22;66777;52.282;5.960;2023-05-07T02:02:01;13.30;96.90
77613;DHT22;66777;52.282;5.960;2023-05-07T02:04:27;13.30;96.90
77613;DHT22;66777;52.282;5.960;2023-05-07T02:06:54;13.30;96.90
77613;DHT22;66777;52.282;5.960;2023-05-07T02:09:20;13.30;96.90
77613;DHT22;66777;52.282;5.960;2023-05-07T02:11:47;13.30;96.90
77613;DHT22;66777;52.282;5.960;2023-05-07T02:14:13;13.30;96.90
77613;DHT22;66777;52.282;5.960;2023-05-07T02:16:38;13.30;96.90
77613;DHT22;66777;52.282;5.960;2023-05-07T02:19:04;13.30;96.90
77613;DHT22;66777;52.282;5.960;2023-05-07T02:21:30;13.30;96.90
77613;DHT22;66777;52.282;5.960;2023-05-07T02:23:56;13.40;96.90
77613;DHT22;66777;52.282;5.960;2023-05-07T02:26:22;13.40;96.90
77613;DHT22;66777;52.282;5.960;2023-05-07T02:28:48;13.40;96.90
77613;DHT22;66777;52.282;5.960;2023-05-07T02:31:14;13.50;96.90
77613;DHT22;66777;52.282;5.960;2023-05-07T02:33:40;13.40;96.90
77613;DHT22;66777;52.282;5.960;2023-05-07T02:36:07;13.40;97.00
77613;DHT22;66777;52.282;5.960;2023-05-07T02:38:34;13.50;97.00
77613;DHT22;66777;52.282;5.960;2023-05-07T02:41:00;13.50;97.00
77613;DHT22;66777;52.282;5.960;2023-05-07T02:43:25;13.40;97.00
77613;DHT22;66777;52.282;5.960;2023-05-07T02:46:03;13.40;96.90
77613;DHT22;66777;52.282;5.960;2023-05-07T02:48:30;13.30;97.00
77613;DHT22;66777;52.282;5.960;2023-05-07T02:50:58;13.30;96.90
77613;DHT22;66777;52.282;5.960;2023-05-07T02:53:25;13.30;96.90
77613;DHT22;66777;52.282;5.960;2023-05-07T02:58:19;13.30;97.00
77613;DHT22;66777;52.282;5.960;2023-05-07T03:00:45;13.30;97.00
77613;DHT22;66777;52.282;5.960;2023-05-07T03:03:11;13.30;97.00
77613;DHT22;66777;52.282;5.960;2023-05-07T03:05:37;13.30;97.00
77613;DHT22;66777;52.282;5.960;2023-05-07T03:08:03;13.30;97.00
77613;DHT22;66777;52.282;5.960;2023-05-07T03:10:30;13.30;97.00
77613;DHT22;66777;52.282;5.960;2023-05-07T03:12:56;13.40;97.00
77613;DHT22;66777;52.282;5.960;2023-05-07T03:15:22;13.50;97.00
77613;DHT22;66777;52.282;5.960;2023-05-07T03:17:48;13.50;97.00
77613;DHT22;66777;52.282;5.960;2023-05-07T03:20:14;13.40;97.00
77613;DHT22;66777;52.282;5.960;2023-05-07T03:22:40;13.50;97.00
77613;DHT22;66777;52.282;5.960;2023-05-07T03:25:08;13.50;97.00
77613;DHT22;66777;52.282;5.960;2023-05-07T03:27:34;13.50;97.10
77613;DHT22;66777;52.282;5.960;2023-05-07T03:30:00;13.50;97.00
77613;DHT22;66777;52.282;5.960;2023-05-07T03:32:26;13.50;97.10
77613;DHT22;66777;52.282;5.960;2023-05-07T03:34:52;13.50;97.10
77613;DHT22;66777;52.282;5.960;2023-05-07T03:37:18;13.50;97.00
77613;DHT22;66777;52.282;5.960;2023-05-07T03:39:43;13.40;97.00
77613;DHT22;66777;52.282;5.960;2023-05-07T03:44:37;13.30;97.00
77613;DHT22;66777;52.282;5.960;2023-05-07T03:47:03;13.30;97.00
77613;DHT22;66777;52.282;5.960;2023-05-07T03:49:29;13.30;97.00
77613;DHT22;66777;52.282;5.960;2023-05-07T03:51:56;13.30;97.00
77613;DHT22;66777;52.282;5.960;2023-05-07T03:54:22;13.30;97.00
77613;DHT22;66777;52.282;5.960;2023-05-07T03:56:48;13.10;97.00
77613;DHT22;66777;52.282;5.960;2023-05-07T03:59:14;13.10;97.00
77613;DHT22;66777;52.282;5.960;2023-05-07T04:01:40;13.10;97.00
77613;DHT22;66777;52.282;5.960;2023-05-07T04:04:05;13.10;97.00
77613;DHT22;66777;52.282;5.960;2023-05-07T04:06:31;13.10;97.00
77613;DHT22;66777;52.282;5.960;2023-05-07T04:08:57;13.10;97.00
77613;DHT22;66777;52.282;5.960;2023-05-07T04:11:23;13.10;97.00
77613;DHT22;66777;52.282;5.960;2023-05-07T04:13:49;13.10;97.00
77613;DHT22;66777;52.282;5.960;2023-05-07T04:16:15;13.10;97.00
77613;DHT22;66777;52.282;5.960;2023-05-07T04:18:42;13.10;97.00
77613;DHT22;66777;52.282;5.960;2023-05-07T04:21:18;13.10;97.10
77613;DHT22;66777;52.282;5.960;2023-05-07T04:23:44;13.20;97.00
77613;DHT22;66777;52.282;5.960;2023-05-07T04:26:10;13.30;97.10
77613;DHT22;66777;52.282;5.960;2023-05-07T04:28:36;13.30;97.10
77613;DHT22;66777;52.282;5.960;2023-05-07T04:33:29;13.30;97.10
77613;DHT22;66777;52.282;5.960;2023-05-07T04:35:54;13.30;97.10
77613;DHT22;66777;52.282;5.960;2023-05-07T04:38:20;13.30;97.10
77613;DHT22;66777;52.282;5.960;2023-05-07T04:40:46;13.30;97.10
77613;DHT22;66777;52.282;5.960;2023-05-07T04:43:12;13.30;97.10
77613;DHT22;66777;52.282;5.960;2023-05-07T04:45:38;13.30;97.10
77613;DHT22;66777;52.282;5.960;2023-05-07T04:48:07;13.30;97.20
77613;DHT22;66777;52.282;5.960;2023-05-07T04:50:33;13.30;97.20
77613;DHT22;66777;52.282;5.960;2023-05-07T04:52:58;13.50;97.20
77613;DHT22;66777;52.282;5.960;2023-05-07T04:55:24;13.50;97.20
77613;DHT22;66777;52.282;5.960;2023-05-07T04:57:52;13.50;97.20
77613;DHT22;66777;52.282;5.960;2023-05-07T05:00:18;13.50;97.20
77613;DHT22;66777;52.282;5.960;2023-05-07T05:02:45;13.60;97.20
77613;DHT22;66777;52.282;5.960;2023-05-07T05:05:11;13.60;97.20
77613;DHT22;66777;52.282;5.960;2023-05-07T05:07:37;13.60;97.20
77613;DHT22;66777;52.282;5.960;2023-05-07T05:10:04;13.70;97.20
77613;DHT22;66777;52.282;5.960;2023-05-07T05:12:31;13.70;97.20
77613;DHT22;66777;52.282;5.960;2023-05-07T05:14:58;13.70;97.30
77613;DHT22;66777;52.282;5.960;2023-05-07T05:17:23;13.70;97.20
77613;DHT22;66777;52.282;5.960;2023-05-07T05:19:49;13.60;97.20
77613;DHT22;66777;52.282;5.960;2023-05-07T05:22:16;13.70;97.30
77613;DHT22;66777;52.282;5.960;2023-05-07T05:24:42;13.70;97.30
77613;DHT22;66777;52.282;5.960;2023-05-07T05:27:08;13.60;97.30
77613;DHT22;66777;52.282;5.960;2023-05-07T05:29:33;13.60;97.30
77613;DHT22;66777;52.282;5.960;2023-05-07T05:32:00;13.60;97.20
77613;DHT22;66777;52.282;5.960;2023-05-07T05:34:26;13.60;97.30
77613;DHT22;66777;52.282;5.960;2023-05-07T05:36:51;13.70;97.30
77613;DHT22;66777;52.282;5.960;2023-05-07T05:39:17;13.70;97.30
77613;DHT22;66777;52.282;5.960;2023-05-07T05:41:43;13.70;97.30
77613;DHT22;66777;52.282;5.960;2023-05-07T05:44:09;13.80;97.30
77613;DHT22;66777;52.282;5.960;2023-05-07T05:46:35;13.70;97.30
77613;DHT22;66777;52.282;5.960;2023-05-07T05:49:01;13.80;97.30
77613;DHT22;66777;52.282;5.960;2023-05-07T05:51:27;13.80;97.30
77613;DHT22;66777;52.282;5.960;2023-05-07T05:53:53;13.90;97.30
77613;DHT22;66777;52.282;5.960;2023-05-07T05:56:19;13.90;97.30
77613;DHT22;66777;52.282;5.960;2023-05-07T05:58:46;13.90;97.30
77613;DHT22;66777;52.282;5.960;2023-05-07T06:01:12;13.90;97.30
77613;DHT22;66777;52.282;5.960;2023-05-07T06:03:38;13.90;97.30
77613;DHT22;66777;52.282;5.960;2023-05-07T06:06:04;13.90;97.30
77613;DHT22;66777;52.282;5.960;2023-05-07T06:08:30;13.80;97.30
77613;DHT22;66777;52.282;5.960;2023-05-07T06:10:56;13.90;97.30
77613;DHT22;66777;52.282;5.960;2023-05-07T06:13:23;13.80;97.30
77613;DHT22;66777;52.282;5.960;2023-05-07T06:15:49;13.90;97.30
77613;DHT22;66777;52.282;5.960;2023-05-07T06:18:14;13.70;97.30
77613;DHT22;66777;52.282;5.960;2023-05-07T06:20:40;13.60;97.30
77613;DHT22;66777;52.282;5.960;2023-05-07T06:23:07;13.70;97.30
77613;DHT22;66777;52.282;5.960;2023-05-07T06:25:33;13.70;97.40
77613;DHT22;66777;52.282;5.960;2023-05-07T06:27:59;13.70;97.30
77613;DHT22;66777;52.282;5.960;2023-05-07T06:30:25;13.70;97.30
77613;DHT22;66777;52.282;5.960;2023-05-07T06:32:52;13.80;97.40
77613;DHT22;66777;52.282;5.960;2023-05-07T06:35:18;13.90;97.40
77613;DHT22;66777;52.282;5.960;2023-05-07T06:37:44;13.90;97.40
77613;DHT22;66777;52.282;5.960;2023-05-07T06:40:10;13.90;97.40
77613;DHT22;66777;52.282;5.960;2023-05-07T06:42:37;13.90;97.40
77613;DHT22;66777;52.282;5.960;2023-05-07T06:45:04;14.00;97.40
77613;DHT22;66777;52.282;5.960;2023-05-07T06:47:30;14.10;97.40
77613;DHT22;66777;52.282;5.960;2023-05-07T06:49:56;14.20;97.40
77613;DHT22;66777;52.282;5.960;2023-05-07T06:52:22;14.10;97.30
77613;DHT22;66777;52.282;5.960;2023-05-07T06:54:48;14.20;97.30
77613;DHT22;66777;52.282;5.960;2023-05-07T06:57:14;14.40;97.30
77613;DHT22;66777;52.282;5.960;2023-05-07T06:59:40;14.30;97.20
77613;DHT22;66777;52.282;5.960;2023-05-07T07:02:06;14.30;97.30
77613;DHT22;66777;52.282;5.960;2023-05-07T07:04:31;14.30;97.20
77613;DHT22;66777;52.282;5.960;2023-05-07T07:06:57;14.30;97.20
77613;DHT22;66777;52.282;5.960;2023-05-07T07:09:23;14.30;97.20
77613;DHT22;66777;52.282;5.960;2023-05-07T07:11:49;14.40;97.20
77613;DHT22;66777;52.282;5.960;2023-05-07T07:14:14;14.50;97.20
77613;DHT22;66777;52.282;5.960;2023-05-07T07:16:40;14.60;97.20
77613;DHT22;66777;52.282;5.960;2023-05-07T07:19:06;14.50;97.20
77613;DHT22;66777;52.282;5.960;2023-05-07T07:21:32;14.60;97.10
77613;DHT22;66777;52.282;5.960;2023-05-07T07:23:58;14.60;97.00
77613;DHT22;66777;52.282;5.960;2023-05-07T07:26:23;14.50;96.90
77613;DHT22;66777;52.282;5.960;2023-05-07T07:28:49;14.70;97.00
77613;DHT22;66777;52.282;5.960;2023-05-07T07:31:15;14.80;97.00
77613;DHT22;66777;52.282;5.960;2023-05-07T07:33:41;15.00;97.10
77613;DHT22;66777;52.282;5.960;2023-05-07T07:36:08;15.10;97.10
77613;DHT22;66777;52.282;5.960;2023-05-07T07:38:34;15.00;97.10
77613;DHT22;66777;52.282;5.960;2023-05-07T07:41:01;15.30;97.00
77613;DHT22;66777;52.282;5.960;2023-05-07T07:43:27;15.50;97.00
77613;DHT22;66777;52.282;5.960;2023-05-07T07:45:54;15.50;96.90
77613;DHT22;66777;52.282;5.960;2023-05-07T07:48:19;15.50;96.80
77613;DHT22;66777;52.282;5.960;2023-05-07T07:50:48;15.50;96.70
77613;DHT22;66777;52.282;5.960;2023-05-07T07:53:13;15.80;96.70
77613;DHT22;66777;52.282;5.960;2023-05-07T07:55:39;16.10;96.70
77613;DHT22;66777;52.282;5.960;2023-05-07T07:58:05;16.20;96.70
77613;DHT22;66777;52.282;5.960;2023-05-07T08:00:32;16.00;96.50
77613;DHT22;66777;52.282;5.960;2023-05-07T08:02:57;15.80;96.10
77613;DHT22;66777;52.282;5.960;2023-05-07T08:05:24;15.60;96.20
77613;DHT22;66777;52.282;5.960;2023-05-07T08:07:51;15.60;96.30
77613;DHT22;66777;52.282;5.960;2023-05-07T08:10:18;15.60;96.20
77613;DHT22;66777;52.282;5.960;2023-05-07T08:12:50;15.80;96.20
77613;DHT22;66777;52.282;5.960;2023-05-07T08:15:16;15.80;96.20
77613;DHT22;66777;52.282;5.960;2023-05-07T08:17:42;16.20;96.40
77613;DHT22;66777;52.282;5.960;2023-05-07T08:20:08;16.70;96.50
77613;DHT22;66777;52.282;5.960;2023-05-07T08:22:37;17.00;96.40
77613;DHT22;66777;52.282;5.960;2023-05-07T08:25:03;17.40;96.20
77613;DHT22;66777;52.282;5.960;2023-05-07T08:27:29;17.50;95.80
77613;DHT22;66777;52.282;5.960;2023-05-07T08:29:55;17.50;95.80
77613;DHT22;66777;52.282;5.960;2023-05-07T08:32:21;17.40;95.90
77613;DHT22;66777;52.282;5.960;2023-05-07T08:34:47;17.00;95.50
77613;DHT22;66777;52.282;5.960;2023-05-07T08:37:13;16.90;95.60
77613;DHT22;66777;52.282;5.960;2023-05-07T08:39:39;17.20;96.10
77613;DHT22;66777;52.282;5.960;2023-05-07T08:42:04;17.00;95.70
77613;DHT22;66777;52.282;5.960;2023-05-07T08:44:35;17.00;95.80
77613;DHT22;66777;52.282;5.960;2023-05-07T08:47:02;17.30;96.00
77613;DHT22;66777;52.282;5.960;2023-05-07T08:49:28;17.50;95.10
77613;DHT22;66777;52.282;5.960;2023-05-07T08:51:55;18.00;95.40
77613;DHT22;66777;52.282;5.960;2023-05-07T08:54:22;18.20;95.40
77613;DHT22;66777;52.282;5.960;2023-05-07T08:56:48;18.40;95.50
77613;DHT22;66777;52.282;5.960;2023-05-07T08:59:14;18.30;95.30
77613;DHT22;66777;52.282;5.960;2023-05-07T09:01:41;18.30;95.40
77613;DHT22;66777;52.282;5.960;2023-05-07T09:04:07;18.40;95.50
77613;DHT22;66777;52.282;5.960;2023-05-07T09:06:33;18.40;95.40
77613;DHT22;66777;52.282;5.960;2023-05-07T09:09:00;18.40;95.20
77613;DHT22;66777;52.282;5.960;2023-05-07T09:11:27;18.70;95.50
77613;DHT22;66777;52.282;5.960;2023-05-07T09:13:54;18.90;95.30
77613;DHT22;66777;52.282;5.960;2023-05-07T09:16:22;18.80;94.60
77613;DHT22;66777;52.282;5.960;2023-05-07T09:18:51;18.40;92.80
77613;DHT22;66777;52.282;5.960;2023-05-07T09:21:18;18.20;93.00
77613;DHT22;66777;52.282;5.960;2023-05-07T09:23:44;18.30;94.10
77613;DHT22;66777;52.282;5.960;2023-05-07T09:26:10;18.70;94.60
77613;DHT22;66777;52.282;5.960;2023-05-07T09:28:43;18.70;94.10
77613;DHT22;66777;52.282;5.960;2023-05-07T09:31:10;18.90;94.20
77613;DHT22;66777;52.282;5.960;2023-05-07T09:33:37;18.60;93.40
77613;DHT22;66777;52.282;5.960;2023-05-07T09:36:08;18.50;93.20
77613;DHT22;66777;52.282;5.960;2023-05-07T09:38:34;18.40;93.90
77613;DHT22;66777;52.282;5.960;2023-05-07T09:41:08;18.10;92.40
77613;DHT22;66777;52.282;5.960;2023-05-07T09:43:35;18.00;93.10
77613;DHT22;66777;52.282;5.960;2023-05-07T09:46:03;18.00;93.50
77613;DHT22;66777;52.282;5.960;2023-05-07T09:48:34;18.00;93.70
77613;DHT22;66777;52.282;5.960;2023-05-07T09:51:02;18.10;93.80
77613;DHT22;66777;52.282;5.960;2023-05-07T09:53:33;18.00;93.70
77613;DHT22;66777;52.282;5.960;2023-05-07T09:56:00;17.90;94.00
77613;DHT22;66777;52.282;5.960;2023-05-07T09:58:26;17.70;93.70
77613;DHT22;66777;52.282;5.960;2023-05-07T10:00:53;17.50;94.00
77613;DHT22;66777;52.282;5.960;2023-05-07T10:03:19;17.50;94.60
77613;DHT22;66777;52.282;5.960;2023-05-07T10:05:46;17.50;94.20
77613;DHT22;66777;52.282;5.960;2023-05-07T10:08:13;17.20;94.70
77613;DHT22;66777;52.282;5.960;2023-05-07T10:10:42;17.30;95.50
77613;DHT22;66777;52.282;5.960;2023-05-07T10:13:08;17.40;95.70
77613;DHT22;66777;52.282;5.960;2023-05-07T10:15:36;17.60;96.00
77613;DHT22;66777;52.282;5.960;2023-05-07T10:18:04;17.60;95.90
77613;DHT22;66777;52.282;5.960;2023-05-07T10:20:33;17.60;96.10
77613;DHT22;66777;52.282;5.960;2023-05-07T10:23:01;17.70;96.10
77613;DHT22;66777;52.282;5.960;2023-05-07T10:25:31;17.80;96.10
77613;DHT22;66777;52.282;5.960;2023-05-07T10:28:04;17.90;96.20
77613;DHT22;66777;52.282;5.960;2023-05-07T10:33:25;17.50;95.20
77613;DHT22;66777;52.282;5.960;2023-05-07T10:35:57;17.80;95.70
77613;DHT22;66777;52.282;5.960;2023-05-07T10:38:25;17.80;95.70
77613;DHT22;66777;52.282;5.960;2023-05-07T10:40:51;17.80;95.70
77613;DHT22;66777;52.282;5.960;2023-05-07T10:43:17;17.80;95.80
77613;DHT22;66777;52.282;5.960;2023-05-07T10:45:43;17.70;96.30
77613;DHT22;66777;52.282;5.960;2023-05-07T10:48:16;17.80;96.60
77613;DHT22;66777;52.282;5.960;2023-05-07T10:50:45;17.40;96.60
77613;DHT22;66777;52.282;5.960;2023-05-07T10:55:43;16.90;96.40
77613;DHT22;66777;52.282;5.960;2023-05-07T11:00:48;16.90;95.90
77613;DHT22;66777;52.282;5.960;2023-05-07T11:03:14;17.20;96.10
77613;DHT22;66777;52.282;5.960;2023-05-07T11:05:41;17.50;96.20
77613;DHT22;66777;52.282;5.960;2023-05-07T11:08:08;17.60;95.90
77613;DHT22;66777;52.282;5.960;2023-05-07T11:10:55;17.90;96.00
77613;DHT22;66777;52.282;5.960;2023-05-07T11:13:42;18.00;95.80
77613;DHT22;66777;52.282;5.960;2023-05-07T11:18:51;18.20;95.80
77613;DHT22;66777;52.282;5.960;2023-05-07T11:21:40;18.50;95.60
77613;DHT22;66777;52.282;5.960;2023-05-07T11:24:09;18.80;95.40
77613;DHT22;66777;52.282;5.960;2023-05-07T11:29:22;18.90;94.40
77613;DHT22;66777;52.282;5.960;2023-05-07T11:31:53;18.80;93.90
77613;DHT22;66777;52.282;5.960;2023-05-07T11:34:23;19.00;94.60
77613;DHT22;66777;52.282;5.960;2023-05-07T11:36:50;18.80;94.30
77613;DHT22;66777;52.282;5.960;2023-05-07T11:39:32;18.60;94.30
77613;DHT22;66777;52.282;5.960;2023-05-07T11:42:02;18.90;94.60
77613;DHT22;66777;52.282;5.960;2023-05-07T11:44:44;18.90;94.60
77613;DHT22;66777;52.282;5.960;2023-05-07T11:47:16;19.00;94.40
77613;DHT22;66777;52.282;5.960;2023-05-07T11:49:45;18.90;94.30
77613;DHT22;66777;52.282;5.960;2023-05-07T11:52:13;18.80;94.00
77613;DHT22;66777;52.282;5.960;2023-05-07T11:54:38;18.80;94.30
77613;DHT22;66777;52.282;5.960;2023-05-07T11:57:04;19.00;94.40
77613;DHT22;66777;52.282;5.960;2023-05-07T11:59:38;19.40;94.80
77613;DHT22;66777;52.282;5.960;2023-05-07T12:02:06;19.80;94.50
77613;DHT22;66777;52.282;5.960;2023-05-07T12:04:34;20.50;94.30
77613;DHT22;66777;52.282;5.960;2023-05-07T12:06:59;20.90;93.60
77613;DHT22;66777;52.282;5.960;2023-05-07T12:09:26;21.40;93.20
77613;DHT22;66777;52.282;5.960;2023-05-07T12:11:53;21.80;92.50
77613;DHT22;66777;52.282;5.960;2023-05-07T12:14:19;21.90;90.70
77613;DHT22;66777;52.282;5.960;2023-05-07T12:16:45;21.90;91.70
77613;DHT22;66777;52.282;5.960;2023-05-07T12:19:12;22.20;91.90
77613;DHT22;66777;52.282;5.960;2023-05-07T12:21:39;22.70;91.90
77613;DHT22;66777;52.282;5.960;2023-05-07T12:24:05;23.00;89.80
77613;DHT22;66777;52.282;5.960;2023-05-07T12:26:32;23.20;89.80
77613;DHT22;66777;52.282;5.960;2023-05-07T12:28:58;23.50;90.00
77613;DHT22;66777;52.282;5.960;2023-05-07T12:31:26;25.20;88.30
77613;DHT22;66777;52.282;5.960;2023-05-07T12:33:52;26.70;85.40
77613;DHT22;66777;52.282;5.960;2023-05-07T12:36:18;27.10;84.70
77613;DHT22;66777;52.282;5.960;2023-05-07T12:38:44;27.80;80.90
77613;DHT22;66777;52.282;5.960;2023-05-07T12:41:10;28.30;80.30
77613;DHT22;66777;52.282;5.960;2023-05-07T12:43:44;29.50;79.70
77613;DHT22;66777;52.282;5.960;2023-05-07T12:46:09;30.00;79.00
77613;DHT22;66777;52.282;5.960;2023-05-07T12:48:43;30.50;75.70
77613;DHT22;66777;52.282;5.960;2023-05-07T12:51:09;32.10;75.90
77613;DHT22;66777;52.282;5.960;2023-05-07T12:53:42;30.80;75.60
77613;DHT22;66777;52.282;5.960;2023-05-07T12:56:08;29.50;77.90
77613;DHT22;66777;52.282;5.960;2023-05-07T12:58:35;28.80;77.00
77613;DHT22;66777;52.282;5.960;2023-05-07T13:01:06;27.90;77.30
77613;DHT22;66777;52.282;5.960;2023-05-07T13:03:36;26.80;74.70
77613;DHT22;66777;52.282;5.960;2023-05-07T13:06:05;25.80;76.70
77613;DHT22;66777;52.282;5.960;2023-05-07T13:08:34;25.10;75.10
77613;DHT22;66777;52.282;5.960;2023-05-07T13:11:02;24.70;74.60
77613;DHT22;66777;52.282;5.960;2023-05-07T13:13:30;24.20;74.60
77613;DHT22;66777;52.282;5.960;2023-05-07T13:15:56;23.90;74.10
77613;DHT22;66777;52.282;5.960;2023-05-07T13:18:23;23.60;74.90
77613;DHT22;66777;52.282;5.960;2023-05-07T13:20:49;23.60;75.20
77613;DHT22;66777;52.282;5.960;2023-05-07T13:23:15;23.80;74.30
77613;DHT22;66777;52.282;5.960;2023-05-07T13:25:41;23.60;74.20
77613;DHT22;66777;52.282;5.960;2023-05-07T13:28:06;23.30;74.50
77613;DHT22;66777;52.282;5.960;2023-05-07T13:30:32;22.80;74.90
77613;DHT22;66777;52.282;5.960;2023-05-07T13:32:58;22.30;75.00
77613;DHT22;66777;52.282;5.960;2023-05-07T13:35:24;22.10;76.80
77613;DHT22;66777;52.282;5.960;2023-05-07T13:37:50;21.90;75.90
77613;DHT22;66777;52.282;5.960;2023-05-07T13:40:17;21.90;77.20
77613;DHT22;66777;52.282;5.960;2023-05-07T13:42:44;21.80;77.30
77613;DHT22;66777;52.282;5.960;2023-05-07T13:45:10;21.70;74.80
77613;DHT22;66777;52.282;5.960;2023-05-07T13:47:40;21.50;78.00
77613;DHT22;66777;52.282;5.960;2023-05-07T13:50:06;21.60;77.60
77613;DHT22;66777;52.282;5.960;2023-05-07T13:52:33;21.70;78.00
77613;DHT22;66777;52.282;5.960;2023-05-07T13:54:59;22.00;77.00
77613;DHT22;66777;52.282;5.960;2023-05-07T13:57:25;22.00;76.70
77613;DHT22;66777;52.282;5.960;2023-05-07T13:59:51;22.10;77.50
77613;DHT22;66777;52.282;5.960;2023-05-07T14:02:17;22.10;77.30
77613;DHT22;66777;52.282;5.960;2023-05-07T14:04:43;22.20;77.00
77613;DHT22;66777;52.282;5.960;2023-05-07T14:07:08;22.20;76.40
77613;DHT22;66777;52.282;5.960;2023-05-07T14:09:34;22.10;75.70
77613;DHT22;66777;52.282;5.960;2023-05-07T14:12:00;22.30;75.70
77613;DHT22;66777;52.282;5.960;2023-05-07T14:14:27;22.50;74.50
77613;DHT22;66777;52.282;5.960;2023-05-07T14:16:52;23.80;73.20
77613;DHT22;66777;52.282;5.960;2023-05-07T14:19:18;26.10;67.90
77613;DHT22;66777;52.282;5.960;2023-05-07T14:21:44;28.10;64.70
77613;DHT22;66777;52.282;5.960;2023-05-07T14:24:10;27.50;65.20
77613;DHT22;66777;52.282;5.960;2023-05-07T14:26:36;26.60;65.70
77613;DHT22;66777;52.282;5.960;2023-05-07T14:29:03;25.70;67.90
77613;DHT22;66777;52.282;5.960;2023-05-07T14:31:29;25.00;68.60
77613;DHT22;66777;52.282;5.960;2023-05-07T14:33:55;24.40;70.00
77613;DHT22;66777;52.282;5.960;2023-05-07T14:36:24;24.10;70.30
77613;DHT22;66777;52.282;5.960;2023-05-07T14:38:52;24.00;70.60
77613;DHT22;66777;52.282;5.960;2023-05-07T14:41:22;24.40;69.60
77613;DHT22;66777;52.282;5.960;2023-05-07T14:43:48;25.30;66.20
77613;DHT22;66777;52.282;5.960;2023-05-07T14:46:19;25.10;68.00
77613;DHT22;66777;52.282;5.960;2023-05-07T14:48:45;24.50;68.00
77613;DHT22;66777;52.282;5.960;2023-05-07T14:51:12;24.00;70.20
77613;DHT22;66777;52.282;5.960;2023-05-07T14:53:38;23.40;71.00
77613;DHT22;66777;52.282;5.960;2023-05-07T14:56:05;22.90;72.10
77613;DHT22;66777;52.282;5.960;2023-05-07T14:58:31;22.50;72.70
77613;DHT22;66777;52.282;5.960;2023-05-07T15:00:57;22.30;72.40
77613;DHT22;66777;52.282;5.960;2023-05-07T15:03:25;22.20;73.80
77613;DHT22;66777;52.282;5.960;2023-05-07T15:05:50;22.20;73.00
77613;DHT22;66777;52.282;5.960;2023-05-07T15:08:17;22.00;71.90
77613;DHT22;66777;52.282;5.960;2023-05-07T15:10:43;21.70;73.40
77613;DHT22;66777;52.282;5.960;2023-05-07T15:13:10;21.40;74.60
77613;DHT22;66777;52.282;5.960;2023-05-07T15:15:36;21.30;75.60
77613;DHT22;66777;52.282;5.960;2023-05-07T15:18:03;21.20;75.00
77613;DHT22;66777;52.282;5.960;2023-05-07T15:20:29;21.00;74.10
77613;DHT22;66777;52.282;5.960;2023-05-07T15:22:55;20.80;75.00
77613;DHT22;66777;52.282;5.960;2023-05-07T15:25:22;20.80;74.90
77613;DHT22;66777;52.282;5.960;2023-05-07T15:27:48;20.60;74.90
77613;DHT22;66777;52.282;5.960;2023-05-07T15:30:14;20.30;76.20
77613;DHT22;66777;52.282;5.960;2023-05-07T15:32:41;20.30;76.60
77613;DHT22;66777;52.282;5.960;2023-05-07T15:35:07;20.30;78.00
77613;DHT22;66777;52.282;5.960;2023-05-07T15:37:34;20.30;77.90
77613;DHT22;66777;52.282;5.960;2023-05-07T15:40:00;20.10;79.30
77613;DHT22;66777;52.282;5.960;2023-05-07T15:42:28;20.10;79.60
77613;DHT22;66777;52.282;5.960;2023-05-07T15:44:54;20.10;78.80
77613;DHT22;66777;52.282;5.960;2023-05-07T15:47:20;20.10;79.30
77613;DHT22;66777;52.282;5.960;2023-05-07T15:49:46;20.10;79.10
77613;DHT22;66777;52.282;5.960;2023-05-07T15:52:12;20.10;79.20
77613;DHT22;66777;52.282;5.960;2023-05-07T15:54:42;20.10;80.40